Time;durP1;ratioP1;P1;durP2;ratioP2;P2;SDS_P1;SDS_P2;PMS_P1;PMS_P2;Temp;Humidity;BMP_temperature;BMP_pressure;BME280_temperature;BME280_humidity;BME280_pressure;Samples;Min_cycle;Max_cycle;Signal;HPM_P1;HPM_P2
2022/07/29 00:02:24;;;;;;;4.67;4.27;;;19.50;99.90;;;;;;4994149;28;20181;-78
2022/07/29 00:04:50;;;;;;;3.53;3.10;;;19.60;99.90;;;;;;4994200;28;20562;-78
2022/07/29 00:07:15;;;;;;;3.60;3.30;;;19.60;99.90;;;;;;5012081;28;20187;-78
2022/07/29 00:09:41;;;;;;;3.53;3.23;;;19.60;99.90;;;;;;5012462;28;20201;-78
2022/07/29 00:12:07;;;;;;;4.90;3.40;;;19.60;99.90;;;;;;4994593;28;20196;-79
2022/07/29 00:14:32;;;;;;;4.87;3.20;;;19.70;99.90;;;;;;4978470;28;20180;-78
2022/07/29 00:16:58;;;;;;;4.03;3.67;;;19.70;99.90;;;;;;4994692;28;20332;-79
2022/07/29 00:19:24;;;;;;;9.33;3.63;;;19.70;99.90;;;;;;4994371;28;20205;-79
2022/07/29 00:21:49;;;;;;;3.03;2.83;;;19.70;99.90;;;;;;4979303;28;20191;-79
2022/07/29 00:24:15;;;;;;;3.70;3.20;;;19.70;99.90;;;;;;4996596;28;20327;-79
2022/07/29 00:26:40;;;;;;;3.63;3.23;;;19.70;99.90;;;;;;4980113;28;20652;-79
2022/07/29 00:29:06;;;;;;;3.20;3.00;;;19.60;99.90;;;;;;4980292;28;20222;-79
2022/07/29 00:31:32;;;;;;;4.27;3.37;;;19.60;99.90;;;;;;4996501;28;20193;-79
2022/07/29 00:33:57;;;;;;;4.73;3.10;;;19.60;99.90;;;;;;4980492;28;20220;-79
2022/07/29 00:36:23;;;;;;;3.27;3.00;;;19.60;99.90;;;;;;4996232;28;20222;-78
2022/07/29 00:38:50;;;;;;;3.50;3.20;;;19.60;99.90;;;;;;4979682;28;20273;-78
2022/07/29 00:41:16;;;;;;;5.73;2.90;;;19.50;99.90;;;;;;5013557;28;20413;-78
2022/07/29 00:43:43;;;;;;;3.60;2.90;;;19.50;99.90;;;;;;5013414;28;20961;-79
2022/07/29 00:46:09;;;;;;;3.73;2.93;;;19.50;99.90;;;;;;5013825;28;20423;-78
2022/07/29 00:48:34;;;;;;;3.50;3.30;;;19.40;99.90;;;;;;4979193;28;20485;-78
2022/07/29 00:51:02;;;;;;;2.87;2.67;;;19.40;99.90;;;;;;4995808;28;20189;-78
2022/07/29 00:53:29;;;;;;;5.07;3.50;;;19.40;99.90;;;;;;5012962;28;20250;-78
2022/07/29 00:55:55;;;;;;;4.67;3.43;;;19.40;99.90;;;;;;4995281;28;20432;-78
2022/07/29 00:58:21;;;;;;;3.60;3.30;;;19.40;99.90;;;;;;5012745;28;20467;-78
2022/07/29 01:00:47;;;;;;;3.60;3.30;;;19.40;99.90;;;;;;4978869;28;20434;-78
2022/07/29 01:03:13;;;;;;;4.60;3.43;;;19.40;99.90;;;;;;5012517;28;20430;-79
2022/07/29 01:05:40;;;;;;;3.87;3.53;;;19.30;99.90;;;;;;5012332;28;20261;-79
2022/07/29 01:08:07;;;;;;;3.23;3.03;;;19.30;99.90;;;;;;5012516;28;20710;-79
2022/07/29 01:10:36;;;;;;;4.20;3.60;;;19.30;99.90;;;;;;4994872;28;20523;-79
2022/07/29 01:13:03;;;;;;;4.03;3.30;;;19.30;99.90;;;;;;5012326;28;20416;-79
2022/07/29 01:15:29;;;;;;;3.40;3.20;;;19.20;99.90;;;;;;4993372;28;20917;-78
2022/07/29 01:18:38;;;;;;;4.40;3.40;;;19.30;99.90;;;;;;5011121;28;20494;-79
2022/07/29 01:21:23;;;;;;;5.00;3.67;;;19.30;99.90;;;;;;4980708;28;20188;-78
2022/07/29 01:24:03;;;;;;;3.40;3.10;;;19.30;99.90;;;;;;4993706;28;21320;-78
2022/07/29 01:26:42;;;;;;;3.47;3.13;;;19.30;99.90;;;;;;5011131;28;20415;-79
2022/07/29 01:29:12;;;;;;;7.40;3.40;;;19.30;99.90;;;;;;4977365;28;20876;-78
2022/07/29 01:31:58;;;;;;;3.30;3.10;;;19.30;99.90;;;;;;4993541;28;20427;-78
2022/07/29 01:34:30;;;;;;;5.83;3.47;;;19.30;99.90;;;;;;4993455;28;20432;-78
2022/07/29 01:37:15;;;;;;;3.43;3.13;;;19.30;99.90;;;;;;4993955;28;20463;-78
2022/07/29 01:39:43;;;;;;;3.87;3.57;;;19.20;99.90;;;;;;5011907;28;20464;-80
2022/07/29 01:42:29;;;;;;;6.20;4.00;;;19.10;99.90;;;;;;4994245;28;20803;-79
2022/07/29 01:45:04;;;;;;;3.80;3.50;;;19.00;99.90;;;;;;4993556;28;20438;-79
2022/07/29 01:47:46;;;;;;;5.83;4.60;;;19.00;99.90;;;;;;5012059;28;20406;-80
2022/07/29 01:50:16;;;;;;;4.63;4.13;;;19.00;99.90;;;;;;5012520;28;20399;-80
2022/07/29 01:52:54;;;;;;;6.70;4.87;;;19.00;99.90;;;;;;4994101;28;20815;-79
2022/07/29 01:55:22;;;;;;;4.80;4.27;;;18.90;99.90;;;;;;5012172;28;20407;-79
2022/07/29 01:57:48;;;;;;;5.60;4.30;;;18.80;99.90;;;;;;4978561;28;20897;-79
2022/07/29 02:00:15;;;;;;;5.83;3.87;;;18.80;99.90;;;;;;5012373;28;20422;-80
2022/07/29 02:02:43;;;;;;;5.17;4.10;;;18.80;99.90;;;;;;4994193;28;20988;-79
2022/07/29 02:05:13;;;;;;;7.00;3.80;;;18.90;99.90;;;;;;5011663;28;20513;-78
2022/07/29 02:07:41;;;;;;;8.17;3.77;;;18.80;99.90;;;;;;4976805;28;21364;-80
2022/07/29 02:10:09;;;;;;;5.47;4.33;;;18.80;99.90;;;;;;4993170;28;20442;-78
2022/07/29 02:12:36;;;;;;;4.50;4.10;;;18.80;99.90;;;;;;5011850;28;20532;-79
2022/07/29 02:15:04;;;;;;;5.60;3.80;;;18.80;99.90;;;;;;4992768;28;20431;-77
2022/07/29 02:17:40;;;;;;;3.93;3.63;;;18.80;99.90;;;;;;5009408;28;20553;-77
2022/07/29 02:20:07;;;;;;;6.33;4.30;;;18.80;99.90;;;;;;5010075;28;20475;-78
2022/07/29 02:22:36;;;;;;;6.60;3.63;;;18.70;99.90;;;;;;4992856;28;20475;-78
2022/07/29 02:25:02;;;;;;;3.27;3.03;;;18.80;99.90;;;;;;5010108;28;20519;-77
2022/07/29 02:27:29;;;;;;;3.70;3.40;;;18.80;99.90;;;;;;4992318;28;20459;-79
2022/07/29 02:29:57;;;;;;;4.13;3.40;;;18.80;99.90;;;;;;5010295;28;20420;-78
2022/07/29 02:32:24;;;;;;;3.27;2.97;;;18.80;99.90;;;;;;4992636;28;20423;-79
2022/07/29 02:34:50;;;;;;;3.77;3.47;;;18.90;99.90;;;;;;5010270;28;20453;-79
2022/07/29 02:37:18;;;;;;;4.47;3.60;;;18.80;99.90;;;;;;4976251;28;20476;-79
2022/07/29 02:39:45;;;;;;;5.57;3.70;;;18.90;99.90;;;;;;4992363;28;20479;-79
2022/07/29 02:42:15;;;;;;;5.13;3.30;;;18.80;99.90;;;;;;4992733;28;20416;-79
2022/07/29 02:44:41;;;;;;;6.63;3.80;;;18.80;99.90;;;;;;5010692;28;20451;-80
2022/07/29 02:47:26;;;;;;;3.73;3.00;;;18.80;99.90;;;;;;4993041;28;20421;-80
2022/07/29 02:50:08;;;;;;;8.07;3.30;;;18.80;99.90;;;;;;4992514;28;20436;-80
2022/07/29 02:53:08;;;;;;;3.93;3.63;;;18.80;99.90;;;;;;5009853;28;20400;-78
2022/07/29 02:55:40;;;;;;;4.40;3.90;;;18.80;99.90;;;;;;4979535;28;20821;-79
2022/07/29 02:58:28;;;;;;;3.70;3.40;;;18.70;99.90;;;;;;4975894;28;20822;-79
2022/07/29 03:00:57;;;;;;;6.10;4.30;;;18.80;99.90;;;;;;4992675;28;20410;-78
2022/07/29 03:03:28;;;;;;;4.60;3.60;;;18.70;99.90;;;;;;4991643;28;20431;-79
2022/07/29 03:05:59;;;;;;;4.17;3.77;;;18.80;99.90;;;;;;4975621;28;20439;-79
2022/07/29 03:08:26;;;;;;;3.90;3.60;;;18.70;99.90;;;;;;4991460;28;20430;-79
2022/07/29 03:10:53;;;;;;;3.57;3.27;;;18.70;99.90;;;;;;4991682;28;20420;-74
2022/07/29 03:13:19;;;;;;;4.90;3.50;;;18.60;99.90;;;;;;5009253;28;20509;-78
2022/07/29 03:15:45;;;;;;;3.30;3.07;;;18.60;99.90;;;;;;4991631;28;20952;-79
2022/07/29 03:18:12;;;;;;;6.27;3.47;;;18.60;99.90;;;;;;4975560;28;20559;-79
2022/07/29 03:20:38;;;;;;;3.37;3.07;;;18.70;99.90;;;;;;4992966;28;20438;-78
2022/07/29 03:23:04;;;;;;;6.67;3.43;;;18.70;99.90;;;;;;4976290;28;20521;-78
2022/07/29 03:25:30;;;;;;;3.93;3.13;;;18.70;99.90;;;;;;5009952;28;20783;-78
2022/07/29 03:27:56;;;;;;;3.70;3.40;;;18.70;99.90;;;;;;4992248;28;20284;-79
2022/07/29 03:30:22;;;;;;;4.93;3.20;;;18.70;99.90;;;;;;5009993;28;20974;-81
2022/07/29 03:32:49;;;;;;;2.90;2.70;;;18.70;99.90;;;;;;5009541;28;20423;-78
2022/07/29 03:35:19;;;;;;;3.57;3.27;;;18.80;99.90;;;;;;4991462;28;20525;-74
2022/07/29 03:37:44;;;;;;;3.90;3.60;;;18.80;99.90;;;;;;5009929;28;20937;-76
2022/07/29 03:40:13;;;;;;;3.43;3.13;;;18.80;99.90;;;;;;5013183;28;20414;-74
2022/07/29 03:42:41;;;;;;;3.70;3.40;;;18.80;99.90;;;;;;5012884;28;20876;-74
2022/07/29 03:45:10;;;;;;;3.83;3.20;;;18.80;99.90;;;;;;4994123;28;20429;-76
2022/07/29 03:47:42;;;;;;;3.50;3.20;;;18.80;99.90;;;;;;5011363;28;20430;-74
2022/07/29 03:50:11;;;;;;;3.30;3.00;;;18.80;99.90;;;;;;4993780;28;20422;-73
2022/07/29 03:52:37;;;;;;;3.10;2.90;;;18.70;99.90;;;;;;5011316;28;20427;-74
2022/07/29 03:55:03;;;;;;;7.57;3.30;;;18.70;99.90;;;;;;5011327;28;20433;-74
2022/07/29 03:57:31;;;;;;;3.90;3.40;;;18.70;99.90;;;;;;5011124;28;20473;-74
2022/07/29 03:59:57;;;;;;;4.70;3.20;;;18.70;99.90;;;;;;4993613;28;20885;-74
2022/07/29 04:02:24;;;;;;;5.07;3.20;;;18.80;99.90;;;;;;4993308;28;20524;-75
2022/07/29 04:04:50;;;;;;;3.30;3.00;;;18.80;99.90;;;;;;5010982;28;20439;-74
2022/07/29 04:07:15;;;;;;;3.40;2.97;;;18.80;99.90;;;;;;5011150;28;20427;-74
2022/07/29 04:09:41;;;;;;;3.37;3.07;;;18.80;99.90;;;;;;5010767;28;20344;-74
2022/07/29 04:12:08;;;;;;;2.80;2.60;;;18.80;99.90;;;;;;5010885;28;20187;-74
2022/07/29 04:14:34;;;;;;;3.80;2.83;;;18.80;99.90;;;;;;5010641;28;20928;-74
2022/07/29 04:17:02;;;;;;;4.37;3.60;;;18.80;99.90;;;;;;5010760;28;20963;-75
2022/07/29 04:19:27;;;;;;;3.23;3.00;;;18.80;99.90;;;;;;4976658;28;20500;-74
2022/07/29 04:21:53;;;;;;;6.20;3.27;;;18.80;99.90;;;;;;5010576;28;20412;-75
2022/07/29 04:24:19;;;;;;;4.10;3.70;;;18.90;99.90;;;;;;4992725;28;20192;-75
2022/07/29 04:26:46;;;;;;;4.30;3.90;;;18.90;99.90;;;;;;4992628;28;20189;-74
2022/07/29 04:29:13;;;;;;;6.70;4.13;;;18.80;99.90;;;;;;5010088;28;20674;-74
2022/07/29 04:31:43;;;;;;;4.27;3.90;;;18.70;99.90;;;;;;5010055;28;20449;-74
2022/07/29 04:34:09;;;;;;;5.97;4.97;;;18.70;99.90;;;;;;5010088;28;20416;-74
2022/07/29 04:36:35;;;;;;;4.40;4.00;;;18.60;99.90;;;;;;4976608;28;20466;-75
2022/07/29 04:39:01;;;;;;;6.90;4.90;;;18.60;99.90;;;;;;4992369;28;20436;-75
2022/07/29 04:41:27;;;;;;;8.20;4.70;;;18.60;99.90;;;;;;5010259;28;20314;-75
2022/07/29 04:43:53;;;;;;;5.93;3.97;;;18.60;99.90;;;;;;5009805;28;20451;-74
2022/07/29 04:46:19;;;;;;;8.80;5.20;;;18.70;99.90;;;;;;5009799;28;20424;-75
2022/07/29 04:48:48;;;;;;;5.10;4.70;;;18.60;99.90;;;;;;5009265;28;20486;-74
2022/07/29 04:51:16;;;;;;;5.23;4.30;;;18.60;99.90;;;;;;5009115;28;20888;-74
2022/07/29 04:53:42;;;;;;;5.30;4.83;;;18.60;99.90;;;;;;4991855;28;20438;-74
2022/07/29 04:56:08;;;;;;;6.27;4.37;;;18.50;99.90;;;;;;4991675;28;20426;-74
2022/07/29 04:58:36;;;;;;;6.90;4.87;;;18.60;99.90;;;;;;5009172;28;20205;-74
2022/07/29 05:01:03;;;;;;;8.67;4.30;;;18.50;99.90;;;;;;4991792;28;21004;-74
2022/07/29 05:03:28;;;;;;;5.83;4.40;;;18.50;99.90;;;;;;5010021;28;20436;-74
2022/07/29 05:05:54;;;;;;;5.33;4.83;;;18.50;99.90;;;;;;4991420;28;20450;-74
2022/07/29 05:08:20;;;;;;;5.57;4.60;;;18.50;99.90;;;;;;5008867;28;20445;-74
2022/07/29 05:10:46;;;;;;;5.20;4.60;;;18.50;99.90;;;;;;5008846;28;20292;-74
2022/07/29 05:13:12;;;;;;;5.50;5.00;;;18.50;99.90;;;;;;5008850;28;20279;-74
2022/07/29 05:15:38;;;;;;;5.40;4.90;;;18.50;99.90;;;;;;4991173;28;21167;-74
2022/07/29 05:18:04;;;;;;;7.00;5.30;;;18.50;99.90;;;;;;5008824;28;20468;-74
2022/07/29 05:20:30;;;;;;;7.13;5.00;;;18.60;99.90;;;;;;5009029;28;20442;-75
2022/07/29 05:22:57;;;;;;;7.07;5.40;;;18.60;99.90;;;;;;5008472;28;20510;-75
2022/07/29 05:25:23;;;;;;;14.00;5.40;;;18.70;99.90;;;;;;5008499;28;20447;-74
2022/07/29 05:27:49;;;;;;;8.47;5.50;;;18.90;99.90;;;;;;5008331;28;20454;-74
2022/07/29 05:30:15;;;;;;;5.60;5.07;;;18.90;99.90;;;;;;5008317;28;20416;-74
2022/07/29 05:32:40;;;;;;;5.40;4.90;;;18.90;99.90;;;;;;5008369;28;20432;-75
2022/07/29 05:35:06;;;;;;;6.37;5.77;;;18.90;99.90;;;;;;4990430;28;20572;-75
2022/07/29 05:37:33;;;;;;;7.53;4.93;;;19.00;99.90;;;;;;5008124;28;20327;-75
2022/07/29 05:39:59;;;;;;;7.00;4.60;;;19.10;99.90;;;;;;5008190;28;20508;-75
2022/07/29 05:42:25;;;;;;;4.77;4.37;;;19.30;99.90;;;;;;5008072;28;20499;-75
2022/07/29 05:44:52;;;;;;;6.80;4.33;;;19.30;99.90;;;;;;4990413;28;20180;-74
2022/07/29 05:47:17;;;;;;;9.33;4.00;;;19.40;99.90;;;;;;4990235;28;20428;-74
2022/07/29 05:49:43;;;;;;;3.47;3.17;;;19.50;99.90;;;;;;5008273;28;20447;-75
2022/07/29 05:52:08;;;;;;;5.50;3.00;;;19.60;99.90;;;;;;4974116;28;20651;-74
2022/07/29 05:54:35;;;;;;;3.77;3.47;;;19.70;99.90;;;;;;5008112;28;20185;-74
2022/07/29 05:57:00;;;;;;;11.40;5.60;;;19.90;99.90;;;;;;5007859;28;20209;-74
2022/07/29 05:59:26;;;;;;;9.10;4.80;;;20.00;99.90;;;;;;5008066;28;20517;-74
2022/07/29 06:01:52;;;;;;;6.27;4.10;;;20.30;99.90;;;;;;4974253;28;20588;-74
2022/07/29 06:04:17;;;;;;;6.30;3.83;;;20.60;99.90;;;;;;4990632;28;20204;-75
2022/07/29 06:06:43;;;;;;;5.20;3.93;;;20.70;99.90;;;;;;5008259;28;20263;-75
2022/07/29 06:09:09;;;;;;;4.40;2.57;;;21.00;99.90;;;;;;5008033;28;20215;-75
2022/07/29 06:11:34;;;;;;;3.00;2.70;;;21.00;99.90;;;;;;4990586;28;20193;-75
2022/07/29 06:14:00;;;;;;;4.50;2.60;;;21.10;99.90;;;;;;4974508;28;20191;-75
2022/07/29 06:16:26;;;;;;;3.53;2.70;;;21.10;99.90;;;;;;5008399;28;20741;-75
2022/07/29 06:18:52;;;;;;;6.07;3.10;;;21.10;99.90;;;;;;5008326;28;20639;-75
2022/07/29 06:21:17;;;;;;;5.50;3.00;;;21.20;99.90;;;;;;5008525;28;20181;-75
2022/07/29 06:23:45;;;;;;;2.90;2.60;;;21.30;99.90;;;;;;5008705;28;20420;-75
2022/07/29 06:26:11;;;;;;;9.47;3.47;;;21.40;99.90;;;;;;5008485;28;20177;-75
2022/07/29 06:28:36;;;;;;;3.87;3.10;;;21.80;99.90;;;;;;5008538;28;20782;-75
2022/07/29 06:31:02;;;;;;;6.20;2.90;;;21.90;99.90;;;;;;4990742;28;20187;-75
2022/07/29 06:33:28;;;;;;;4.53;3.43;;;22.00;99.90;;;;;;4990610;28;20185;-75
2022/07/29 06:35:54;;;;;;;3.40;3.10;;;22.20;99.90;;;;;;4990713;28;20280;-75
2022/07/29 06:38:20;;;;;;;5.23;3.27;;;22.30;99.90;;;;;;5008420;28;20222;-75
2022/07/29 06:43:33;;;;;;;8.73;3.43;;;22.40;99.90;;;;;;5008854;28;20942;-75
2022/07/29 06:46:04;;;;;;;4.70;4.00;;;22.30;99.90;;;;;;4975128;28;20543;-74
2022/07/29 06:48:31;;;;;;;5.47;3.33;;;22.20;99.90;;;;;;4992457;28;21020;-75
2022/07/29 06:50:57;;;;;;;4.43;3.80;;;22.30;99.90;;;;;;5008406;28;20443;-75
2022/07/29 06:53:23;;;;;;;4.50;3.50;;;22.40;99.90;;;;;;4990453;28;20934;-75
2022/07/29 06:55:49;;;;;;;4.47;3.60;;;22.50;99.90;;;;;;4989772;28;20424;-75
2022/07/29 06:58:17;;;;;;;5.90;4.43;;;22.60;99.90;;;;;;5007224;28;20479;-75
2022/07/29 07:00:44;;;;;;;4.10;3.70;;;22.70;99.90;;;;;;4973691;28;20191;-75
2022/07/29 07:03:10;;;;;;;5.30;4.53;;;22.80;99.90;;;;;;5007353;28;20434;-75
2022/07/29 07:05:35;;;;;;;2.90;2.70;;;22.90;99.90;;;;;;5007147;28;21094;-75
2022/07/29 07:08:01;;;;;;;5.53;3.80;;;23.10;99.90;;;;;;5007085;28;20268;-75
2022/07/29 07:10:27;;;;;;;8.47;3.97;;;23.10;99.90;;;;;;5007060;28;20195;-75
2022/07/29 07:12:53;;;;;;;6.67;4.10;;;23.20;99.90;;;;;;5008329;28;20191;-75
2022/07/29 07:15:21;;;;;;;4.43;3.50;;;23.30;99.90;;;;;;4993045;28;20428;-75
2022/07/29 07:17:48;;;;;;;4.53;4.00;;;23.30;99.90;;;;;;5011096;28;20254;-75
2022/07/29 07:20:15;;;;;;;4.63;4.23;;;23.50;99.90;;;;;;4993326;28;20424;-75
2022/07/29 07:22:40;;;;;;;12.77;4.03;;;23.50;99.90;;;;;;5010962;28;20507;-75
2022/07/29 07:25:06;;;;;;;3.83;3.50;;;23.60;99.90;;;;;;4993249;28;20520;-75
2022/07/29 07:27:32;;;;;;;4.30;3.17;;;23.80;99.90;;;;;;4992849;28;20231;-75
2022/07/29 07:29:58;;;;;;;5.37;3.50;;;23.90;99.90;;;;;;5010755;28;20540;-75
2022/07/29 07:32:23;;;;;;;5.20;3.20;;;23.80;99.90;;;;;;4976762;28;20199;-75
2022/07/29 07:34:49;;;;;;;5.17;3.00;;;23.70;99.90;;;;;;4993096;28;20661;-75
2022/07/29 07:37:15;;;;;;;14.33;3.60;;;23.60;99.90;;;;;;5010611;28;20215;-75
2022/07/29 07:39:41;;;;;;;6.90;3.37;;;23.60;99.90;;;;;;5010823;28;20983;-75
2022/07/29 07:42:06;;;;;;;8.57;2.93;;;23.50;99.90;;;;;;5010547;28;20186;-75
2022/07/29 07:44:32;;;;;;;4.90;3.20;;;23.50;99.90;;;;;;5010799;28;20851;-75
2022/07/29 07:46:58;;;;;;;3.00;2.80;;;23.50;99.90;;;;;;5010499;28;20259;-75
2022/07/29 07:49:24;;;;;;;6.80;3.60;;;23.60;99.90;;;;;;4976221;28;20259;-75
2022/07/29 07:51:49;;;;;;;5.70;3.90;;;23.70;99.90;;;;;;4976822;28;20200;-75
2022/07/29 07:54:15;;;;;;;3.30;2.97;;;23.80;99.90;;;;;;4993203;28;20192;-76
2022/07/29 07:56:41;;;;;;;4.73;3.70;;;23.90;99.90;;;;;;5012285;28;20224;-76
2022/07/29 07:59:06;;;;;;;5.57;3.03;;;24.00;99.90;;;;;;4994600;28;20210;-75
2022/07/29 08:01:32;;;;;;;11.00;3.20;;;24.00;99.90;;;;;;5012462;28;20602;-75
2022/07/29 08:03:58;;;;;;;7.70;3.93;;;24.00;99.90;;;;;;5012400;28;20219;-76
2022/07/29 08:06:24;;;;;;;6.60;3.40;;;24.00;99.90;;;;;;5011529;28;20239;-76
2022/07/29 08:08:50;;;;;;;6.60;3.77;;;24.00;99.90;;;;;;4977828;28;20217;-76
2022/07/29 08:11:16;;;;;;;7.20;3.33;;;24.00;99.90;;;;;;4993731;28;20504;-75
2022/07/29 08:13:42;;;;;;;5.97;3.10;;;24.10;99.90;;;;;;5011250;28;20495;-76
2022/07/29 08:16:12;;;;;;;4.63;4.00;;;24.10;99.90;;;;;;5011203;28;20455;-77
2022/07/29 08:18:39;;;;;;;5.40;3.80;;;24.20;99.90;;;;;;5010616;28;21271;-76
2022/07/29 08:21:05;;;;;;;6.47;3.60;;;24.30;99.90;;;;;;5011987;28;20455;-76
2022/07/29 08:23:38;;;;;;;10.53;4.00;;;24.30;99.90;;;;;;5018579;28;21069;-75
2022/07/29 08:26:10;;;;;;;8.50;3.70;;;24.40;99.90;;;;;;4995048;28;20412;-75
2022/07/29 08:28:37;;;;;;;7.33;3.90;;;24.40;99.90;;;;;;5010371;28;20475;-76
2022/07/29 08:31:02;;;;;;;7.43;3.80;;;24.40;99.90;;;;;;5009928;28;20424;-75
2022/07/29 08:33:28;;;;;;;7.13;4.20;;;24.50;99.90;;;;;;4992542;28;20437;-75
2022/07/29 08:35:54;;;;;;;6.30;3.47;;;24.60;99.90;;;;;;4993187;28;20196;-76
2022/07/29 08:38:19;;;;;;;5.10;3.80;;;24.70;99.90;;;;;;4992177;28;21002;-76
2022/07/29 08:40:46;;;;;;;4.30;3.90;;;24.70;99.90;;;;;;5009889;28;20191;-76
2022/07/29 08:43:12;;;;;;;8.77;3.93;;;24.80;99.90;;;;;;5012013;28;20245;-76
2022/07/29 08:45:46;;;;;;;5.57;3.90;;;24.80;99.90;;;;;;4979573;28;20443;-76
2022/07/29 08:48:14;;;;;;;10.37;4.10;;;24.90;99.90;;;;;;4991271;28;20480;-76
2022/07/29 08:50:41;;;;;;;9.00;4.00;;;25.00;99.90;;;;;;4991221;28;20444;-75
2022/07/29 08:53:17;;;;;;;7.63;3.80;;;25.10;99.90;;;;;;5008942;28;20928;-76
2022/07/29 08:55:46;;;;;;;4.23;3.40;;;25.30;99.90;;;;;;5009265;28;20419;-76
2022/07/29 08:58:13;;;;;;;3.80;3.50;;;25.50;99.90;;;;;;5009062;28;20609;-76
2022/07/29 09:00:43;;;;;;;9.33;3.70;;;25.50;99.90;;;;;;4975449;28;20937;-76
2022/07/29 09:03:12;;;;;;;6.60;4.37;;;25.50;99.90;;;;;;5009425;28;20427;-75
2022/07/29 09:05:41;;;;;;;5.73;3.80;;;25.60;99.90;;;;;;5009401;28;20523;-76
2022/07/29 09:08:07;;;;;;;8.43;3.83;;;25.80;99.90;;;;;;5009047;28;20459;-75
2022/07/29 09:10:35;;;;;;;8.63;4.67;;;25.90;99.90;;;;;;4991233;28;20480;-75
2022/07/29 09:13:00;;;;;;;5.40;4.07;;;26.00;99.90;;;;;;4991257;28;20426;-76
2022/07/29 09:15:26;;;;;;;7.33;4.47;;;26.20;99.90;;;;;;4991139;28;21097;-75
2022/07/29 09:17:52;;;;;;;5.80;4.10;;;26.30;99.90;;;;;;5008725;28;20271;-75
2022/07/29 09:20:22;;;;;;;14.10;4.37;;;26.60;99.90;;;;;;5008818;28;20177;-75
2022/07/29 09:22:49;;;;;;;5.60;4.70;;;26.90;99.40;;;;;;5008674;28;20669;-76
2022/07/29 09:25:31;;;;;;;11.43;4.10;;;26.90;99.60;;;;;;4990736;28;20955;-75
2022/07/29 09:28:06;;;;;;;7.53;4.40;;;26.80;98.60;;;;;;5008749;28;20935;-75
2022/07/29 09:30:33;;;;;;;4.90;3.80;;;26.70;97.60;;;;;;5008755;28;20907;-75
2022/07/29 09:33:02;;;;;;;7.20;4.17;;;26.80;98.30;;;;;;5008569;28;20483;-75
2022/07/29 09:35:29;;;;;;;4.70;4.30;;;27.30;99.90;;;;;;5008138;28;20873;-75
2022/07/29 09:37:55;;;;;;;7.17;4.37;;;27.30;96.40;;;;;;5008385;28;21289;-75
2022/07/29 09:40:27;;;;;;;7.70;3.87;;;27.20;97.40;;;;;;5008397;28;20431;-75
2022/07/29 09:42:56;;;;;;;5.17;3.47;;;27.40;98.80;;;;;;5008536;28;20424;-76
2022/07/29 09:45:33;;;;;;;5.87;3.70;;;27.50;97.60;;;;;;4990971;28;20436;-75
2022/07/29 09:48:13;;;;;;;5.70;4.23;;;27.50;98.80;;;;;;4991332;28;20949;-75
2022/07/29 09:50:40;;;;;;;16.87;4.17;;;27.50;98.10;;;;;;5009152;28;20509;-75
2022/07/29 09:53:06;;;;;;;9.93;4.13;;;27.60;97.70;;;;;;5008965;28;20557;-75
2022/07/29 09:55:32;;;;;;;6.40;4.00;;;27.70;98.20;;;;;;4991606;28;20432;-75
2022/07/29 09:58:17;;;;;;;5.77;3.53;;;27.80;97.60;;;;;;4991211;28;20475;-75
2022/07/29 10:00:44;;;;;;;6.73;4.43;;;27.90;95.90;;;;;;4991150;28;20224;-75
2022/07/29 10:03:09;;;;;;;8.30;4.67;;;28.00;96.60;;;;;;5009015;28;20420;-75
2022/07/29 10:05:35;;;;;;;7.30;3.90;;;28.10;96.30;;;;;;4991173;28;20474;-75
2022/07/29 10:08:01;;;;;;;4.50;3.37;;;28.30;95.90;;;;;;4991093;28;20308;-76
2022/07/29 10:10:35;;;;;;;4.77;3.90;;;28.60;95.00;;;;;;5008738;28;20185;-75
2022/07/29 10:13:06;;;;;;;5.83;3.73;;;28.60;91.30;;;;;;5008951;28;20416;-75
2022/07/29 10:15:40;;;;;;;7.63;4.03;;;28.80;93.00;;;;;;5008955;28;20412;-75
2022/07/29 10:18:07;;;;;;;6.27;4.00;;;29.20;93.20;;;;;;4993138;28;20527;-75
2022/07/29 10:20:33;;;;;;;4.17;3.87;;;29.30;92.40;;;;;;4997724;28;20447;-74
2022/07/29 10:22:59;;;;;;;9.53;4.10;;;29.20;91.00;;;;;;5017129;28;20863;-75
2022/07/29 10:25:26;;;;;;;7.27;3.90;;;29.00;90.10;;;;;;4993136;28;20490;-75
2022/07/29 10:27:53;;;;;;;4.43;4.03;;;28.30;87.70;;;;;;5008768;28;20242;-75
2022/07/29 10:30:20;;;;;;;6.03;4.30;;;28.20;91.30;;;;;;5008765;28;20432;-75
2022/07/29 10:33:04;;;;;;;4.47;3.80;;;28.10;92.70;;;;;;5008664;28;20412;-75
2022/07/29 10:36:15;;;;;;;5.90;3.90;;;28.10;93.60;;;;;;5008478;28;20514;-75
2022/07/29 10:38:46;;;;;;;8.50;3.70;;;28.10;92.70;;;;;;5008434;28;20439;-75
2022/07/29 10:41:26;;;;;;;7.60;4.20;;;28.20;92.20;;;;;;5008746;28;20419;-75
2022/07/29 10:43:58;;;;;;;4.50;4.10;;;28.20;92.80;;;;;;5008509;28;21027;-75
2022/07/29 10:46:24;;;;;;;11.27;4.47;;;28.00;92.00;;;;;;4990481;28;20438;-77
2022/07/29 10:49:11;;;;;;;6.13;4.17;;;28.00;92.80;;;;;;4993271;28;20806;-75
2022/07/29 10:51:57;;;;;;;11.40;4.33;;;27.90;93.00;;;;;;5012418;28;21230;-75
2022/07/29 10:54:35;;;;;;;7.63;3.83;;;27.80;92.10;;;;;;5012231;28;20408;-75
2022/07/29 10:57:31;;;;;;;12.03;4.07;;;28.00;92.20;;;;;;5012173;28;20487;-75
2022/07/29 11:00:10;;;;;;;8.77;3.30;;;28.00;91.00;;;;;;4999741;28;20443;-75
2022/07/29 11:02:44;;;;;;;7.37;3.70;;;28.20;92.30;;;;;;5012130;28;20958;-76
2022/07/29 11:05:18;;;;;;;8.17;3.50;;;28.40;91.70;;;;;;4994600;28;20450;-75
2022/07/29 11:08:12;;;;;;;6.87;4.00;;;28.40;90.90;;;;;;5012101;28;20443;-76
2022/07/29 11:10:38;;;;;;;8.03;3.73;;;28.40;92.70;;;;;;5011870;28;20455;-75
2022/07/29 11:13:04;;;;;;;3.70;3.07;;;28.20;92.60;;;;;;5012113;28;20507;-75
2022/07/29 11:15:57;;;;;;;4.13;3.50;;;28.00;92.50;;;;;;5012069;28;20862;-75
2022/07/29 11:18:23;;;;;;;4.10;3.70;;;27.90;93.50;;;;;;5011777;28;20236;-76
2022/07/29 11:20:50;;;;;;;5.33;4.13;;;27.70;93.40;;;;;;5011850;28;20422;-75
2022/07/29 11:23:26;;;;;;;4.00;3.27;;;27.70;93.20;;;;;;5011778;28;20419;-76
2022/07/29 11:26:20;;;;;;;4.43;3.57;;;27.70;95.00;;;;;;5012001;28;20412;-76
2022/07/29 11:29:22;;;;;;;4.97;3.70;;;27.90;94.30;;;;;;5011816;28;20428;-76
2022/07/29 11:31:53;;;;;;;6.10;3.97;;;28.00;95.00;;;;;;5011731;28;20395;-76
2022/07/29 11:34:32;;;;;;;4.90;4.10;;;28.00;93.60;;;;;;4994330;28;20422;-75
2022/07/29 11:37:09;;;;;;;6.50;4.13;;;28.10;92.40;;;;;;5011722;28;20513;-76
2022/07/29 11:39:39;;;;;;;3.90;3.57;;;28.20;89.20;;;;;;5011612;28;20955;-76
2022/07/29 11:42:20;;;;;;;6.77;3.70;;;28.30;89.70;;;;;;4993976;28;20428;-75
2022/07/29 11:44:58;;;;;;;8.10;3.60;;;28.30;92.30;;;;;;4993511;28;20428;-76
2022/07/29 11:47:25;;;;;;;8.23;3.83;;;28.30;90.90;;;;;;4993437;28;20435;-76
2022/07/29 11:49:51;;;;;;;5.50;3.80;;;28.20;91.40;;;;;;4993690;28;20490;-75
2022/07/29 11:52:18;;;;;;;6.33;3.53;;;28.00;91.00;;;;;;5011513;28;20512;-76
2022/07/29 11:54:45;;;;;;;5.73;3.60;;;28.00;91.00;;;;;;5011168;28;20430;-75
2022/07/29 11:57:10;;;;;;;6.63;3.77;;;27.70;90.70;;;;;;4993809;28;20898;-76
2022/07/29 11:59:42;;;;;;;6.00;3.70;;;27.30;92.60;;;;;;4992944;28;20464;-75
2022/07/29 12:02:08;;;;;;;5.40;3.30;;;26.90;93.90;;;;;;4993565;28;20177;-75
2022/07/29 12:04:47;;;;;;;5.63;2.90;;;26.50;95.00;;;;;;5011171;28;20941;-76
2022/07/29 12:07:13;;;;;;;4.70;2.60;;;26.20;96.40;;;;;;4996114;28;20404;-75
2022/07/29 12:09:39;;;;;;;2.90;2.57;;;25.90;94.80;;;;;;5011435;28;20518;-75
2022/07/29 12:12:05;;;;;;;3.33;2.03;;;26.10;94.70;;;;;;5013516;28;20189;-75
2022/07/29 12:14:32;;;;;;;2.23;1.60;;;26.20;94.00;;;;;;4994018;28;20557;-76
2022/07/29 12:17:00;;;;;;;1.57;1.43;;;26.30;92.80;;;;;;5011449;28;20518;-76
2022/07/29 12:19:27;;;;;;;2.23;2.00;;;26.20;92.10;;;;;;4993520;28;20451;-76
2022/07/29 12:21:54;;;;;;;2.60;1.93;;;25.90;91.80;;;;;;5010960;28;20424;-75
2022/07/29 12:24:21;;;;;;;3.50;2.40;;;25.90;91.60;;;;;;5010921;28;20428;-76
2022/07/29 12:26:55;;;;;;;1.93;1.80;;;25.70;91.70;;;;;;4993094;28;20467;-76
2022/07/29 12:29:22;;;;;;;3.57;1.93;;;25.30;93.10;;;;;;5010174;28;20893;-76
2022/07/29 12:31:53;;;;;;;2.23;2.10;;;25.20;92.80;;;;;;4992467;28;20808;-76
2022/07/29 12:34:22;;;;;;;3.13;2.20;;;25.10;93.80;;;;;;4993110;28;20420;-78
2022/07/29 12:36:48;;;;;;;3.40;2.20;;;25.00;94.30;;;;;;5010938;28;20471;-77
2022/07/29 12:39:16;;;;;;;3.80;2.63;;;24.70;95.10;;;;;;4977076;28;20671;-77
2022/07/29 12:41:43;;;;;;;2.50;2.30;;;24.50;97.90;;;;;;5011097;28;21411;-77
2022/07/29 12:44:09;;;;;;;2.87;2.67;;;24.40;98.60;;;;;;5011138;28;20514;-78
2022/07/29 12:46:34;;;;;;;6.00;3.00;;;24.30;99.90;;;;;;5011295;28;20514;-77
2022/07/29 12:49:00;;;;;;;2.60;2.40;;;24.00;99.40;;;;;;5010350;28;20438;-78
2022/07/29 12:51:34;;;;;;;4.03;2.47;;;23.70;99.90;;;;;;4992338;28;20208;-76
2022/07/29 12:54:15;;;;;;;5.13;2.60;;;23.20;99.90;;;;;;5010524;28;20188;-77
2022/07/29 12:56:42;;;;;;;3.67;3.10;;;22.80;99.90;;;;;;4993168;28;20570;-77
2022/07/29 12:59:15;;;;;;;5.73;3.60;;;22.70;99.90;;;;;;4993212;28;20535;-75